Time;durP1;ratioP1;P1;durP2;ratioP2;P2;SDS_P1;SDS_P2;PMS_P1;PMS_P2;Temp;Humidity;BMP_temperature;BMP_pressure;BME280_temperature;BME280_humidity;BME280_pressure;Samples;Min_cycle;Max_cycle;Signal;HPM_P1;HPM_P2
2022/11/08 00:01:30;;;;;;;2.85;1.80;;;;;;;-4.51;71.94;97098.97;6297121;28;20468;-69
2022/11/08 00:04:24;;;;;;;4.15;2.40;;;;;;;-4.68;72.41;97098.97;6296587;28;20107;-69
2022/11/08 00:14:11;;;;;;;4.03;2.35;;;;;;;-4.49;71.94;97101.53;6296041;28;20122;-69
2022/11/08 00:17:14;;;;;;;3.05;1.92;;;;;;;-4.54;71.90;97104.94;6293868;28;20044;-68
2022/11/08 00:20:21;;;;;;;3.03;2.10;;;;;;;-4.55;71.92;97099.84;6301402;28;20041;-70
2022/11/08 00:23:27;;;;;;;4.30;2.20;;;;;;;-4.57;72.19;97093.84;6296089;28;20393;-69
2022/11/08 00:26:31;;;;;;;2.70;2.20;;;;;;;-4.64;72.17;97087.00;6293758;28;20044;-70
2022/11/08 00:29:37;;;;;;;2.65;2.28;;;;;;;-4.63;72.21;97089.56;6311774;28;20036;-69
2022/11/08 00:32:38;;;;;;;3.55;2.28;;;;;;;-4.65;71.86;97088.72;6314380;28;20492;-70
2022/11/08 00:35:44;;;;;;;5.00;2.33;;;;;;;-4.75;71.77;97085.31;6313145;28;20040;-70
2022/11/08 00:38:45;;;;;;;2.95;1.73;;;;;;;-4.48;71.80;97095.53;6306115;28;20074;-70
2022/11/08 00:41:49;;;;;;;;;;;;;;;-4.46;71.64;97096.41;6311647;28;21059;-69
2022/11/08 00:44:53;;;;;;;5.07;3.00;;;;;;;-4.32;71.63;97099.78;6311114;28;19927;-71
2022/11/08 00:47:59;;;;;;;4.05;2.70;;;;;;;-4.11;71.17;97093.72;6301035;28;20036;-70
2022/11/08 00:51:01;;;;;;;;;;;;;;;-3.96;70.94;97098.81;6309091;28;20750;-70
2022/11/08 00:54:11;;;;;;;3.50;2.17;;;;;;;-4.04;70.91;97104.84;6305335;28;19916;-69
2022/11/08 00:57:13;;;;;;;4.22;2.13;;;;;;;-4.14;71.07;97098.84;6296781;28;20056;-69
2022/11/08 01:00:15;;;;;;;3.03;2.22;;;;;;;-4.04;70.89;97094.56;6312449;28;20410;-70
2022/11/08 01:03:19;;;;;;;2.70;2.33;;;;;;;-3.97;70.98;97106.50;6308846;28;20032;-70
2022/11/08 01:06:23;;;;;;;4.93;2.83;;;;;;;-3.91;71.12;97103.91;6292536;28;20139;-71
2022/11/08 01:09:29;;;;;;;2.92;2.22;;;;;;;-3.87;71.16;97103.06;6299036;28;20040;-71
2022/11/08 01:12:34;;;;;;;4.05;2.30;;;;;;;-3.91;70.82;97098.75;6288831;28;20130;-70
2022/11/08 01:15:41;;;;;;;4.47;2.30;;;;;;;-3.78;70.91;97100.44;6291109;28;20040;-70
2022/11/08 01:18:50;;;;;;;4.82;2.53;;;;;;;-3.70;70.73;97101.25;6288716;28;20040;-69
2022/11/08 01:21:54;;;;;;;5.43;2.50;;;;;;;-3.68;70.07;97107.25;6292234;28;20044;-69
2022/11/08 01:25:01;;;;;;;4.93;2.42;;;;;;;-4.19;70.52;97033.78;6293369;28;20040;-69
2022/11/08 01:28:09;;;;;;;4.88;2.85;;;;;;;-3.79;70.17;97096.16;6291527;28;20036;-69
2022/11/08 01:31:21;;;;;;;4.35;3.05;;;;;;;-3.89;70.24;97094.47;6294786;28;20052;-69
2022/11/08 01:34:22;;;;;;;4.03;2.47;;;;;;;-4.03;70.47;97089.41;6294663;28;20177;-69
2022/11/08 01:37:27;;;;;;;;;;;;;;;-4.07;70.69;97101.41;6298943;28;20044;-69
2022/11/08 01:40:31;;;;;;;5.65;3.08;;;;;;;-4.21;70.70;97103.19;6296112;28;20328;-69
2022/11/08 01:44:01;;;;;;;4.95;3.13;;;;;;;-4.30;71.26;97113.50;6292365;28;20052;-69
2022/11/08 01:47:05;;;;;;;4.93;2.17;;;;;;;-4.44;71.12;97103.25;6298061;28;20052;-70
2022/11/08 01:50:17;;;;;;;4.57;2.58;;;;;;;-4.46;71.99;97106.66;6304654;28;20036;-69
2022/11/08 01:53:18;;;;;;;6.63;3.50;;;;;;;-4.49;71.82;97091.25;6310154;28;20130;-69
2022/11/08 01:56:25;;;;;;;6.75;3.95;;;;;;;-4.46;71.80;97092.09;6321363;28;20409;-69
2022/11/08 01:59:33;;;;;;;10.07;4.72;;;;;;;-4.67;72.08;97069.03;6319243;28;20043;-70
2022/11/08 02:02:39;;;;;;;7.85;3.90;;;;;;;-4.47;71.60;97094.66;6304449;28;20051;-69
2022/11/08 02:05:43;;;;;;;7.20;4.00;;;;;;;-4.33;71.51;97106.63;6300417;28;20052;-69
2022/11/08 02:08:45;;;;;;;5.85;3.28;;;;;;;-4.46;71.21;97081.84;6302067;28;20125;-69
2022/11/08 02:11:51;;;;;;;5.90;3.20;;;;;;;-4.19;71.26;97109.16;6300299;28;20041;-70
2022/11/08 02:14:59;;;;;;;7.35;3.47;;;;;;;-4.19;70.75;97101.47;6299730;28;20043;-70
2022/11/08 02:18:01;;;;;;;7.03;3.30;;;;;;;-4.16;70.55;97096.31;6287096;28;20430;-69
2022/11/08 02:21:20;;;;;;;11.15;4.93;;;;;;;-4.11;70.90;97098.84;6283636;28;20477;-70
2022/11/08 02:24:24;;;;;;;9.10;4.13;;;;;;;-4.22;70.36;97091.16;6290851;28;20052;-70
2022/11/08 02:27:29;;;;;;;12.23;4.80;;;;;;;-4.26;70.56;97089.47;6283790;28;20386;-70
2022/11/08 02:30:36;;;;;;;8.80;4.25;;;;;;;-4.32;70.70;97085.22;6289395;28;21971;-70
2022/11/08 02:33:39;;;;;;;7.35;3.38;;;;;;;-4.22;70.29;97083.47;6290053;28;20056;-70
2022/11/08 02:36:49;;;;;;;4.45;2.60;;;;;;;-3.96;69.57;97082.50;6284563;28;20081;-70
2022/11/08 02:39:51;;;;;;;7.05;3.35;;;;;;;-4.15;69.95;97082.59;6284953;28;20044;-70
2022/11/08 02:42:55;;;;;;;7.90;3.22;;;;;;;-4.18;70.04;97092.03;6285050;28;20241;-70
2022/11/08 02:45:59;;;;;;;7.60;3.03;;;;;;;-4.27;70.00;97082.66;6308236;28;20048;-70
2022/11/08 02:49:00;;;;;;;;;;;;;;;-4.14;69.60;97086.00;6294651;28;20094;-70
2022/11/08 02:52:03;;;;;;;3.80;2.15;;;;;;;-4.31;69.60;97071.50;6299253;28;20304;-71
2022/11/08 02:55:04;;;;;;;3.92;1.98;;;;;;;-4.29;69.74;97085.22;6303652;28;20392;-70
2022/11/08 02:58:11;;;;;;;4.95;1.70;;;;;;;-4.18;69.74;97094.59;6300929;28;20131;-71
2022/11/08 03:01:15;;;;;;;4.07;2.42;;;;;;;-4.24;69.45;97097.19;6303003;28;20100;-69
2022/11/08 03:04:22;;;;;;;4.68;2.45;;;;;;;-4.26;69.22;97104.91;6301054;28;20044;-69
2022/11/08 03:07:26;;;;;;;4.47;2.03;;;;;;;-4.36;69.93;97093.81;6298427;28;20048;-69
2022/11/08 03:10:30;;;;;;;4.22;2.15;;;;;;;-4.39;69.75;97078.38;6299772;28;20060;-70
2022/11/08 03:13:34;;;;;;;2.92;1.63;;;;;;;-4.24;69.75;97097.19;6296476;28;20135;-70
2022/11/08 03:16:38;;;;;;;3.33;1.42;;;;;;;-4.24;69.53;97087.78;6299467;28;20036;-69
2022/11/08 03:19:43;;;;;;;2.50;2.00;;;;;;;-4.11;69.75;97104.84;6290213;28;20240;-70
2022/11/08 03:22:45;;;;;;;3.22;1.75;;;;;;;-4.13;69.26;97101.44;6288869;28;20555;-70
2022/11/08 03:25:49;;;;;;;5.50;2.33;;;;;;;-4.10;69.43;97109.13;6287197;28;20051;-69
2022/11/08 03:28:53;;;;;;;3.50;2.10;;;;;;;-4.09;69.54;97107.41;6284057;28;20129;-69
2022/11/08 03:31:59;;;;;;;3.40;2.20;;;;;;;-3.96;69.19;97115.91;6287524;28;20078;-69
2022/11/08 03:35:04;;;;;;;3.80;2.05;;;;;;;-3.92;69.45;97115.06;6298091;28;20044;-70
2022/11/08 03:38:06;;;;;;;4.38;3.15;;;;;;;-3.75;68.15;97110.69;6286997;28;20386;-70
2022/11/08 03:41:07;;;;;;;4.57;2.40;;;;;;;-3.77;68.47;97114.97;6289633;28;20044;-69
2022/11/08 03:44:11;;;;;;;4.60;1.85;;;;;;;-3.67;68.12;97106.38;6286510;28;20055;-69
2022/11/08 03:47:17;;;;;;;3.40;2.15;;;;;;;-3.59;67.88;97123.47;6281037;28;20048;-69
2022/11/08 03:50:18;;;;;;;2.50;1.73;;;;;;;-3.56;68.02;97120.91;6296257;28;20047;-70
2022/11/08 03:53:22;;;;;;;2.67;1.70;;;;;;;-3.51;68.26;97116.56;6296735;28;20040;-70
2022/11/08 03:56:24;;;;;;;2.55;2.03;;;;;;;-3.38;68.04;97120.78;6302661;28;20851;-69
2022/11/08 03:59:34;;;;;;;3.72;2.28;;;;;;;-3.33;67.73;97123.34;6298736;28;20043;-69
2022/11/08 04:02:38;;;;;;;3.47;2.33;;;;;;;-3.27;67.71;97116.44;6296818;28;20047;-69
2022/11/08 04:05:40;;;;;;;6.15;3.55;;;;;;;-3.13;67.21;97128.34;6298751;28;22876;-70
2022/11/08 04:08:42;;;;;;;4.70;3.60;;;;;;;-3.12;67.35;97130.06;6294401;28;20071;-69
2022/11/08 04:15:15;;;;;;;5.63;3.20;;;;;;;-3.01;67.20;97123.13;6293688;28;20409;-70
2022/11/08 04:21:50;;;;;;;4.85;3.15;;;;;;;-2.61;66.37;97127.94;6307187;28;20040;-69
2022/11/08 04:24:51;;;;;;;5.53;2.97;;;;;;;-2.47;66.34;97141.56;6295315;28;20204;-69
2022/11/08 04:27:58;;;;;;;4.18;2.70;;;;;;;-2.24;66.14;97140.47;6284602;28;20049;-70
2022/11/08 04:31:10;;;;;;;2.60;2.35;;;;;;;-2.06;66.01;97138.56;6285436;28;20048;-70
2022/11/08 04:34:13;;;;;;;4.35;2.60;;;;;;;-1.90;65.34;97139.22;6280532;28;20204;-70
2022/11/08 04:37:23;;;;;;;4.82;2.38;;;;;;;-1.70;64.88;97133.00;6284051;28;20063;-70
2022/11/08 04:40:24;;;;;;;4.35;2.90;;;;;;;-1.62;64.21;97126.00;6286699;28;20055;-70
2022/11/08 04:43:29;;;;;;;5.28;3.20;;;;;;;-1.49;64.25;97135.31;6283732;28;20059;-69
2022/11/08 04:46:33;;;;;;;5.32;3.22;;;;;;;-1.31;63.76;97133.34;6279963;28;20047;-70
2022/11/08 04:49:37;;;;;;;5.25;3.10;;;;;;;-1.14;63.49;97128.81;6282508;28;20056;-69
2022/11/08 04:52:41;;;;;;;3.20;2.38;;;;;;;-1.00;63.78;97121.69;6291130;28;20035;-69
2022/11/08 04:55:46;;;;;;;4.78;3.28;;;;;;;-0.92;62.03;97122.44;6293709;28;20048;-70
2022/11/08 04:58:50;;;;;;;4.40;2.90;;;;;;;-0.79;62.00;97122.22;6288010;28;20032;-69
2022/11/08 05:01:51;;;;;;;3.88;2.63;;;;;;;-0.67;61.80;97129.81;6283121;28;20063;-70
2022/11/08 05:04:59;;;;;;;5.35;3.00;;;;;;;-0.39;61.89;97129.34;6283705;28;20048;-70
2022/11/08 05:08:00;;;;;;;3.72;2.65;;;;;;;-0.05;61.44;97133.03;6289377;28;20063;-69
2022/11/08 05:11:07;;;;;;;4.97;3.15;;;;;;;0.32;60.51;97132.31;6306407;28;20048;-70
2022/11/08 05:14:08;;;;;;;4.72;3.20;;;;;;;0.48;59.62;97122.47;6294395;28;20133;-70
2022/11/08 05:17:11;;;;;;;5.65;3.22;;;;;;;0.66;59.26;97141.97;6293539;28;20048;-70
2022/11/08 05:23:42;;;;;;;4.05;2.92;;;;;;;0.96;58.62;97139.59;6299716;28;20078;-69
2022/11/08 05:26:47;;;;;;;6.05;3.55;;;;;;;1.19;57.36;97132.16;6300346;28;20055;-70
2022/11/08 05:29:53;;;;;;;4.50;3.47;;;;;;;1.34;57.27;97131.78;6299125;28;20098;-70
2022/11/08 05:33:00;;;;;;;4.45;3.00;;;;;;;1.70;56.46;97152.53;6302798;28;20186;-70
2022/11/08 05:36:07;;;;;;;6.97;4.13;;;;;;;1.63;55.60;97137.97;6306517;28;20143;-70
2022/11/08 05:39:09;;;;;;;6.05;4.05;;;;;;;1.54;54.82;97144.25;6299781;28;20511;-69
2022/11/08 05:42:12;;;;;;;3.88;3.33;;;;;;;1.70;55.09;97149.91;6298004;28;20414;-70
2022/11/08 05:45:14;;;;;;;5.60;3.80;;;;;;;1.98;53.89;97144.00;6293625;28;20048;-70
2022/11/08 05:48:16;;;;;;;6.97;4.55;;;;;;;2.55;51.79;97143.31;6287336;28;20185;-70
2022/11/08 05:51:19;;;;;;;5.32;4.20;;;;;;;3.24;49.98;97140.38;6285362;28;20048;-70
2022/11/08 05:54:20;;;;;;;7.93;4.80;;;;;;;3.87;48.21;97140.94;6297602;28;20063;-69
2022/11/08 05:57:25;;;;;;;6.05;4.22;;;;;;;4.27;46.27;97138.66;6299792;28;20048;-70
2022/11/08 06:00:32;;;;;;;6.60;4.43;;;;;;;4.36;45.81;97145.28;6287783;28;20059;-70
2022/11/08 06:03:37;;;;;;;5.65;4.20;;;;;;;4.67;45.75;97138.94;6291061;28;20172;-70
2022/11/08 06:06:42;;;;;;;6.43;4.00;;;;;;;5.56;44.20;97132.91;6295294;28;20110;-70
2022/11/08 06:09:44;;;;;;;5.93;4.28;;;;;;;6.60;42.03;97131.09;6311653;28;20048;-70
2022/11/08 06:12:47;;;;;;;10.32;4.53;;;;;;;6.70;40.77;97148.03;6302957;28;20040;-70
2022/11/08 06:15:57;;;;;;;9.15;4.90;;;;;;;6.38;41.53;97146.03;6286672;28;20196;-70
2022/11/08 06:19:00;;;;;;;7.50;4.45;;;;;;;6.07;42.34;97149.94;6290207;28;20063;-70
2022/11/08 06:22:03;;;;;;;7.57;4.63;;;;;;;6.09;42.30;97145.53;6284288;28;20501;-69
2022/11/08 06:25:08;;;;;;;8.48;5.22;;;;;;;6.55;41.42;97151.34;6293106;28;20056;-69
2022/11/08 06:28:13;;;;;;;6.50;5.05;;;;;;;7.26;40.01;97150.75;6288435;28;20052;-70
2022/11/08 06:31:17;;;;;;;5.60;4.13;;;;;;;7.16;40.46;97159.03;6288372;28;20115;-70
2022/11/08 06:34:21;;;;;;;9.57;6.28;;;;;;;7.81;40.22;97171.66;6282656;28;20409;-70
2022/11/08 06:37:27;;;;;;;8.80;5.95;;;;;;;7.80;39.69;97167.34;6284408;28;20525;-69
2022/11/08 06:40:31;;;;;;;6.28;4.47;;;;;;;7.39;39.44;97171.03;6282622;28;20452;-68
2022/11/08 06:43:35;;;;;;;5.63;4.35;;;;;;;7.03;40.21;97165.75;6289892;28;20037;-70
2022/11/08 06:46:41;;;;;;;8.23;5.50;;;;;;;6.80;40.20;97173.81;6284688;28;20205;-70
2022/11/08 06:49:45;;;;;;;6.20;4.18;;;;;;;7.71;39.34;97173.03;6285372;28;20043;-69
2022/11/08 06:52:53;;;;;;;5.88;4.45;;;;;;;8.17;37.81;97170.75;6283763;28;20048;-69
2022/11/08 06:55:55;;;;;;;7.25;5.30;;;;;;;7.35;38.61;97158.16;6284448;28;20182;-69
2022/11/08 06:59:01;;;;;;;9.93;5.65;;;;;;;7.08;39.72;97183.88;6295569;28;20056;-71
2022/11/08 07:02:07;;;;;;;11.30;6.38;;;;;;;6.55;40.35;97174.88;6286382;28;20041;-69
2022/11/08 07:05:12;;;;;;;6.88;5.20;;;;;;;6.43;40.22;97180.66;6284928;28;20048;-69
2022/11/08 07:08:15;;;;;;;7.78;5.00;;;;;;;7.00;39.45;97168.50;6285769;28;20040;-69
2022/11/08 07:11:24;;;;;;;8.00;5.65;;;;;;;8.08;37.36;97172.91;6280435;28;20154;-69
2022/11/08 07:14:28;;;;;;;7.15;5.57;;;;;;;8.09;37.09;97174.59;6294087;28;20040;-69
2022/11/08 07:17:34;;;;;;;7.40;4.72;;;;;;;7.87;37.96;97180.06;6296688;28;20819;-69
2022/11/08 07:20:44;;;;;;;8.07;5.32;;;;;;;7.01;38.81;97177.19;6300043;28;20044;-69
2022/11/08 07:23:49;;;;;;;7.80;5.55;;;;;;;5.83;40.41;97176.16;6296918;28;20078;-69
2022/11/08 07:26:52;;;;;;;7.78;4.93;;;;;;;5.32;42.18;97174.72;6301568;28;20056;-69
2022/11/08 07:29:57;;;;;;;7.80;4.95;;;;;;;4.76;43.07;97169.91;6297111;28;20132;-70
2022/11/08 07:33:03;;;;;;;8.13;5.57;;;;;;;4.36;44.15;97178.28;6298941;28;20409;-70
2022/11/08 07:36:08;;;;;;;7.57;4.57;;;;;;;4.12;44.73;97167.81;6297765;28;20056;-69
2022/11/08 07:39:13;;;;;;;5.90;4.43;;;;;;;4.54;44.32;97175.03;6300771;28;20104;-69
2022/11/08 07:42:17;;;;;;;7.55;4.95;;;;;;;4.89;43.79;97173.72;6302669;28;20050;-72
2022/11/08 07:45:23;;;;;;;8.40;5.25;;;;;;;5.66;42.27;97173.34;6296346;28;20398;-70
2022/11/08 07:48:31;;;;;;;6.07;4.40;;;;;;;6.23;40.98;97177.13;6294199;28;21307;-69
2022/11/08 07:51:35;;;;;;;7.78;4.70;;;;;;;6.36;40.84;97180.06;6281442;28;20047;-70
2022/11/08 07:54:37;;;;;;;5.65;3.70;;;;;;;6.12;40.99;97171.50;6286641;28;20055;-69
2022/11/08 07:57:38;;;;;;;6.75;4.57;;;;;;;5.57;41.54;97168.50;6282204;28;20513;-69
2022/11/08 08:00:42;;;;;;;5.53;4.57;;;;;;;5.11;42.30;97152.06;6287483;28;20048;-68
2022/11/08 08:03:51;;;;;;;5.55;4.40;;;;;;;5.67;42.09;97156.81;6298315;28;20040;-70
2022/11/08 08:06:56;;;;;;;6.78;4.28;;;;;;;7.16;39.41;97156.41;6280874;28;20048;-69
2022/11/08 08:09:58;;;;;;;6.35;4.22;;;;;;;8.35;37.94;97151.47;6300239;28;20059;-70
2022/11/08 08:13:02;;;;;;;6.93;4.00;;;;;;;11.22;33.61;97157.00;6283491;28;20048;-69
2022/11/08 08:16:07;;;;;;;4.57;3.33;;;;;;;13.41;29.99;97154.66;6287978;28;20040;-69
2022/11/08 08:19:17;;;;;;;5.63;3.53;;;;;;;15.31;27.53;97157.16;6287658;28;20502;-69
2022/11/08 08:22:21;;;;;;;5.95;3.58;;;;;;;17.88;25.11;97159.34;6287245;28;20052;-69
2022/11/08 08:25:26;;;;;;;3.15;2.75;;;;;;;19.40;22.95;97160.41;6284788;28;20044;-70
2022/11/08 08:28:27;;;;;;;3.20;2.90;;;;;;;20.33;21.63;97156.59;6284142;28;20440;-69
2022/11/08 08:31:32;;;;;;;3.78;2.88;;;;;;;20.75;20.82;97145.28;6281714;28;20078;-69
2022/11/08 08:34:36;;;;;;;3.40;2.25;;;;;;;20.03;21.35;97147.13;6291087;28;20693;-70
2022/11/08 08:37:40;;;;;;;3.10;2.50;;;;;;;18.20;22.97;97128.09;6286091;28;20043;-70
2022/11/08 08:40:46;;;;;;;4.25;3.17;;;;;;;19.06;21.86;97123.63;6281068;28;20052;-70
2022/11/08 08:43:49;;;;;;;3.15;2.45;;;;;;;18.47;22.22;97122.06;6279629;28;20044;-70
2022/11/08 08:46:54;;;;;;;3.78;3.03;;;;;;;14.91;25.33;97125.84;6286667;28;20663;-70
2022/11/08 08:50:00;;;;;;;3.45;2.90;;;;;;;11.69;29.46;97121.50;6304160;28;20066;-70
2022/11/08 08:53:06;;;;;;;4.32;3.08;;;;;;;9.70;32.71;97114.44;6306966;28;20512;-70
2022/11/08 08:56:07;;;;;;;3.08;2.78;;;;;;;8.52;34.63;97121.75;6309127;28;20131;-70
2022/11/08 08:59:14;;;;;;;4.45;3.50;;;;;;;7.58;36.28;97129.09;6316102;28;20497;-69
2022/11/08 09:02:16;;;;;;;5.05;3.67;;;;;;;7.04;37.02;97114.25;6295165;28;20036;-70
2022/11/08 09:05:22;;;;;;;4.72;3.60;;;;;;;6.99;37.10;97119.69;6298515;28;20197;-70
2022/11/08 09:08:27;;;;;;;4.50;3.53;;;;;;;6.57;38.06;97119.91;6295223;28;20764;-69
2022/11/08 09:11:31;;;;;;;5.10;3.90;;;;;;;6.66;38.04;97124.72;6295708;28;20055;-70
2022/11/08 09:14:35;;;;;;;6.18;3.90;;;;;;;6.55;37.49;97121.75;6299698;28;20047;-73
2022/11/08 09:17:43;;;;;;;4.85;3.35;;;;;;;6.36;38.29;97121.72;6318257;28;20033;-72
2022/11/08 09:20:46;;;;;;;5.10;4.25;;;;;;;7.47;36.52;97113.06;6316701;28;20496;-71
2022/11/08 09:23:48;;;;;;;4.83;4.20;;;;;;;10.86;31.54;97106.66;6309399;28;20044;-72
2022/11/08 09:26:49;;;;;;;4.68;3.70;;;;;;;13.14;27.97;97112.53;6301430;28;20514;-73
2022/11/08 09:29:56;;;;;;;5.30;3.65;;;;;;;14.20;26.26;97130.41;6304486;28;20529;-71
2022/11/08 09:33:04;;;;;;;6.47;4.10;;;;;;;14.71;25.67;97130.88;6303537;28;20036;-67
2022/11/08 09:36:14;;;;;;;4.28;3.75;;;;;;;14.78;25.17;97125.97;6304034;28;20040;-70
2022/11/08 09:39:22;;;;;;;8.00;3.80;;;;;;;14.80;25.01;97119.59;6307333;28;20039;-70
2022/11/08 09:42:51;;;;;;;6.80;4.07;;;;;;;15.01;25.10;97121.53;6320001;28;20032;-77
2022/11/08 09:45:56;;;;;;;5.53;3.70;;;;;;;15.00;24.83;97122.47;6326084;28;20055;-79
2022/11/08 09:49:16;;;;;;;6.10;4.07;;;;;;;14.89;24.89;97122.47;6323861;28;20124;-76
2022/11/08 09:52:26;;;;;;;5.28;3.97;;;;;;;12.95;26.85;97120.91;6322139;28;20044;-79
2022/11/08 09:55:43;;;;;;;5.32;4.20;;;;;;;11.34;29.22;97133.47;6315770;28;20052;-75
2022/11/08 09:59:00;;;;;;;6.25;4.75;;;;;;;11.67;29.04;97120.75;6314491;28;20055;-75
2022/11/08 10:02:17;;;;;;;7.57;5.28;;;;;;;12.69;27.70;97124.53;6299626;28;20092;-76
2022/11/08 10:05:33;;;;;;;5.90;4.55;;;;;;;12.90;27.29;97125.66;6312715;28;20052;-75
2022/11/08 10:08:47;;;;;;;6.70;4.53;;;;;;;12.53;27.73;97114.19;6325105;28;20047;-73
2022/11/08 10:12:08;;;;;;;7.20;5.05;;;;;;;10.82;29.96;97123.59;6318513;28;20189;-76
2022/11/08 10:15:19;;;;;;;8.30;5.43;;;;;;;11.29;29.42;97119.75;6313688;28;20048;-75
2022/11/08 10:18:49;;;;;;;7.47;5.28;;;;;;;11.69;28.92;97118.00;6321914;28;20047;-75
2022/11/08 10:21:57;;;;;;;6.53;4.70;;;;;;;11.81;28.57;97137.47;6319230;28;20055;-75
2022/11/08 10:25:16;;;;;;;5.57;4.38;;;;;;;11.49;28.67;97124.56;6322168;28;20117;-74
2022/11/08 10:28:25;;;;;;;6.47;4.28;;;;;;;11.61;28.82;97126.44;6319108;28;20056;-75
2022/11/08 10:31:32;;;;;;;6.88;4.35;;;;;;;10.98;29.35;97127.81;6319937;28;20036;-75
2022/11/08 10:34:43;;;;;;;6.03;4.25;;;;;;;8.44;32.92;97121.34;6318082;28;20051;-75
2022/11/08 10:37:48;;;;;;;6.53;4.68;;;;;;;5.92;37.45;97120.06;6319940;28;20047;-75
2022/11/08 10:41:21;;;;;;;6.57;5.13;;;;;;;4.49;40.36;97115.25;6318791;28;20127;-75
2022/11/08 10:44:27;;;;;;;5.90;4.20;;;;;;;3.71;42.21;97109.34;6298135;28;20051;-75
2022/11/08 10:47:36;;;;;;;6.75;4.32;;;;;;;3.10;43.64;97120.84;6300858;28;20044;-75
2022/11/08 10:50:48;;;;;;;6.68;4.78;;;;;;;3.19;44.14;97121.47;6299458;28;20134;-75
2022/11/08 10:53:49;;;;;;;4.97;4.38;;;;;;;3.00;43.86;97101.25;6293444;28;20041;-75
2022/11/08 10:56:56;;;;;;;9.60;4.57;;;;;;;2.66;44.75;97129.97;6294516;28;20041;-76
2022/11/08 11:00:20;;;;;;;5.30;3.97;;;;;;;2.22;45.86;97122.56;6300874;28;20040;-74
2022/11/08 11:03:28;;;;;;;6.20;4.38;;;;;;;1.70;47.29;97136.94;6300623;28;20056;-77
2022/11/08 11:06:32;;;;;;;7.75;4.70;;;;;;;1.47;48.35;97126.28;6299615;28;20054;-76
2022/11/08 11:09:39;;;;;;;6.55;4.28;;;;;;;1.25;49.03;97137.19;6295975;28;20121;-76
2022/11/08 11:12:47;;;;;;;6.68;4.43;;;;;;;1.88;47.85;97137.38;6296791;28;20040;-76
2022/11/08 11:15:49;;;;;;;6.68;4.60;;;;;;;3.47;44.61;97143.09;6303297;28;20028;-76
2022/11/08 11:19:00;;;;;;;7.40;4.55;;;;;;;4.57;42.07;97137.59;6296175;28;20048;-76
2022/11/08 11:22:05;;;;;;;5.55;3.85;;;;;;;5.20;40.94;97143.88;6298028;28;20421;-78
2022/11/08 11:25:20;;;;;;;7.53;3.67;;;;;;;5.61;39.64;97141.41;6296418;28;20421;-81
2022/11/08 11:28:27;;;;;;;6.97;3.70;;;;;;;5.57;39.57;97150.25;6307427;28;20264;-80
2022/11/08 11:31:35;;;;;;;6.40;3.65;;;;;;;4.72;41.00;97147.44;6302879;28;20068;-80
2022/11/08 11:35:06;;;;;;;8.68;4.85;;;;;;;2.93;44.44;97143.91;6312623;28;20067;-81
2022/11/08 11:38:37;;;;;;;7.97;4.00;;;;;;;1.61;47.62;97147.53;6308536;28;20078;-81
2022/11/08 11:41:54;;;;;;;5.85;4.13;;;;;;;0.70;50.04;97133.25;6302563;28;20537;-80
2022/11/08 11:45:05;;;;;;;6.28;4.05;;;;;;;0.42;51.44;97154.53;6309185;28;20575;-82
2022/11/08 11:48:15;;;;;;;6.03;4.35;;;;;;;0.18;52.36;97153.28;6307865;28;20055;-81
2022/11/08 11:51:21;;;;;;;5.57;4.03;;;;;;;-0.06;52.59;97156.31;6307614;28;20041;-81
2022/11/08 11:54:28;;;;;;;6.07;3.72;;;;;;;-0.22;53.46;97155.75;6307158;28;20510;-80
2022/11/08 11:57:43;;;;;;;6.50;3.55;;;;;;;-0.38;53.50;97160.34;6304971;28;20051;-81
2022/11/08 12:01:00;;;;;;;6.65;3.70;;;;;;;-0.54;54.33;97169.22;6302742;28;20044;-80
2022/11/08 12:04:16;;;;;;;8.43;4.60;;;;;;;-0.76;54.62;97155.81;6303115;28;20048;-81
2022/11/08 12:07:27;;;;;;;6.43;3.75;;;;;;;-0.98;55.59;97158.69;6322599;28;20047;-82
2022/11/08 12:10:48;;;;;;;6.00;4.32;;;;;;;-1.15;55.99;97171.00;6313146;28;20072;-81
2022/11/08 12:14:00;;;;;;;7.63;4.57;;;;;;;-1.30;56.06;97177.22;6303751;28;20051;-79
2022/11/08 12:17:36;;;;;;;7.70;4.85;;;;;;;-1.40;56.94;97181.66;6303814;28;20062;-82
2022/11/08 12:21:02;;;;;;;6.57;4.05;;;;;;;-1.48;56.83;97188.63;6310201;28;20083;-81
2022/11/08 12:24:39;;;;;;;5.75;4.13;;;;;;;-1.59;57.22;97195.63;6305144;28;20873;-79
2022/11/08 12:27:51;;;;;;;9.70;5.03;;;;;;;-1.69;57.28;97194.06;6300429;28;20056;-80
2022/11/08 12:31:21;;;;;;;7.55;4.00;;;;;;;-1.74;57.07;97195.81;6305683;28;20525;-80
2022/11/08 12:34:33;;;;;;;9.00;3.92;;;;;;;-1.78;58.16;97194.13;6291228;28;20052;-80
2022/11/08 12:37:37;;;;;;;5.70;3.88;;;;;;;-1.92;58.10;97191.72;6302894;28;20045;-80
2022/11/08 12:40:51;;;;;;;;;;;;;;;-2.08;57.69;97197.03;6301772;28;20055;-82
2022/11/08 12:44:29;;;;;;;5.38;3.40;;;;;;;-2.37;58.79;97174.09;6298040;28;19929;-79
2022/11/08 12:48:04;;;;;;;5.13;3.80;;;;;;;-2.23;58.74;97202.34;6298727;28;20048;-79
2022/11/08 12:51:22;;;;;;;8.07;3.60;;;;;;;-2.27;59.08;97209.22;6296826;28;20056;-82
2022/11/08 12:54:36;;;;;;;10.38;4.03;;;;;;;-2.31;59.33;97222.16;6295816;28;20048;-79
2022/11/08 12:57:44;;;;;;;11.77;5.00;;;;;;;-2.40;59.04;97215.38;6296204;28;20197;-79
2022/11/08 13:00:53;;;;;;;11.52;5.15;;;;;;;-2.52;59.59;97205.16;6297245;28;20457;-79
2022/11/08 13:04:14;;;;;;;8.43;4.72;;;;;;;-2.54;60.23;97212.06;6296889;28;20096;-81
2022/11/08 13:07:41;;;;;;;14.05;5.60;;;;;;;-2.54;60.25;97217.22;6302058;28;20043;-81
2022/11/08 13:10:54;;;;;;;13.27;6.05;;;;;;;-2.61;60.14;97215.53;6295906;28;20051;-80
2022/11/08 13:14:03;;;;;;;14.88;6.38;;;;;;;-2.64;60.13;97210.41;6295557;28;20035;-79
2022/11/08 13:17:14;;;;;;;13.13;6.72;;;;;;;-2.64;60.13;97218.13;6295357;28;20048;-80
2022/11/08 13:20:41;;;;;;;10.45;6.13;;;;;;;-2.71;60.83;97225.06;6297616;28;20040;-80
2022/11/08 13:23:45;;;;;;;8.40;5.90;;;;;;;-2.75;60.77;97224.19;6295150;28;20051;-80
2022/11/08 13:26:49;;;;;;;10.25;5.88;;;;;;;-2.75;60.57;97224.19;6297868;28;20371;-80
2022/11/08 13:29:55;;;;;;;6.90;4.80;;;;;;;-2.82;60.75;97232.84;6293168;28;20044;-81
2022/11/08 13:33:17;;;;;;;9.68;4.78;;;;;;;-2.83;60.71;97230.25;6298123;28;20048;-79
2022/11/08 13:36:34;;;;;;;10.07;5.00;;;;;;;-2.85;61.32;97232.88;6295031;28;20044;-80
2022/11/08 13:40:03;;;;;;;8.38;5.10;;;;;;;-2.93;62.30;97232.06;6294045;28;20209;-74
2022/11/08 13:43:25;;;;;;;8.32;4.18;;;;;;;-2.93;61.82;97239.78;6303552;28;20549;-69
2022/11/08 13:46:29;;;;;;;9.70;4.15;;;;;;;-3.02;61.71;97229.53;6312464;28;20099;-72
2022/11/08 13:49:35;;;;;;;11.48;5.28;;;;;;;-3.09;61.97;97238.16;6311449;28;20040;-66
2022/11/08 13:53:00;;;;;;;64.82;31.65;;;;;;;-3.13;62.58;97246.75;6319085;28;20509;-69
2022/11/08 13:56:04;;;;;;;19.08;9.77;;;;;;;-3.10;62.34;97241.59;6297889;28;20134;-67
2022/11/08 13:59:38;;;;;;;13.13;7.35;;;;;;;-3.07;62.74;97247.56;6299160;28;20044;-72
2022/11/08 14:02:40;;;;;;;12.07;5.72;;;;;;;-3.04;61.97;97257.00;6281252;28;20044;-66
2022/11/08 14:05:48;;;;;;;16.92;5.57;;;;;;;-3.07;62.13;97257.88;6297704;28;20229;-69
2022/11/08 14:09:08;;;;;;;10.13;4.68;;;;;;;-3.18;62.60;97252.78;6297146;28;20056;-70
2022/11/08 14:12:35;;;;;;;8.70;4.22;;;;;;;-3.28;62.82;97253.69;6299962;28;20053;-69
2022/11/08 14:15:45;;;;;;;8.23;4.88;;;;;;;-3.29;63.06;97262.25;6298106;28;20429;-67
2022/11/08 14:18:49;;;;;;;10.95;5.30;;;;;;;-3.33;62.83;97254.56;6295875;28;20053;-67
2022/11/08 14:21:56;;;;;;;15.68;6.63;;;;;;;-3.43;62.77;97261.44;6297618;28;20405;-67
2022/11/08 14:25:13;;;;;;;9.38;5.07;;;;;;;-3.47;63.48;97267.47;6294589;28;20524;-75
2022/11/08 14:28:24;;;;;;;10.27;5.03;;;;;;;-3.54;63.19;97276.06;6311236;28;20417;-74
2022/11/08 14:31:31;;;;;;;9.02;4.35;;;;;;;-3.59;63.27;97272.63;6318401;28;20032;-70
2022/11/08 14:34:36;;;;;;;8.82;4.88;;;;;;;-3.63;63.54;97277.78;6317405;28;20052;-69
2022/11/08 14:37:45;;;;;;;13.00;5.63;;;;;;;-3.74;63.88;97274.41;6314790;28;20036;-70
2022/11/08 14:40:55;;;;;;;16.48;6.97;;;;;;;-3.76;64.08;97294.13;6317124;28;20040;-71
2022/11/08 14:43:59;;;;;;;20.95;10.20;;;;;;;-3.87;64.21;97288.16;6307142;28;20052;-69
2022/11/08 14:47:03;;;;;;;29.33;12.00;;;;;;;-3.92;64.04;97289.88;6314618;28;20405;-77
2022/11/08 14:50:28;;;;;;;23.75;11.50;;;;;;;-3.95;64.78;97295.00;6314384;28;20056;-74
2022/11/08 14:53:32;;;;;;;27.63;11.57;;;;;;;-3.99;64.54;97294.16;6299069;28;20551;-75
2022/11/08 14:56:37;;;;;;;22.70;9.93;;;;;;;-3.96;64.63;97293.28;6298391;28;20047;-74
2022/11/08 14:59:46;;;;;;;22.52;9.65;;;;;;;-3.97;64.96;97281.28;6303874;28;20036;-66
2022/11/08 15:03:04;;;;;;;14.27;6.93;;;;;;;-3.77;64.71;97287.25;6296793;28;20064;-66
2022/11/08 15:06:10;;;;;;;10.90;6.60;;;;;;;-3.70;64.26;97291.53;6250387;28;20041;-66